Immagine casuale
Testata Regione Lazio ARSIAL SIARL

Ultima Misura Rilevata

Temperatura, Umidità, Pioggia, Pressione Radiazione Solare, Venti, Evapotraspirazione, ecc.
Temperature diurne e notturne Direzione vento Legenda
Prov Stazione Data TMin TMed TMax UMed Pioggia PMed
FR ALATRI Basciano 26/05/2018 15,4 22,3 31,2 74 0 1.016
FR ALVITO Az. Ist. S. Benedetto 26/05/2018 11,7 20,1 27,4 81 0,2 1.019
FR ANAGNI La Gloria 26/05/2018 13,5 21,2 30,3 81 0 1.017
FR ARPINO Vigne Piane 26/05/2018 16 21,5 29,1 73 0,2 1.019
FR BOVILLE ERNICA Sasso 26/05/2018 15 22,8 31,7 71 1 N.D.
FR ESPERIA Modale 26/05/2018 13,7 22,3 31,8 74 0 1.022
FR PASTENA Acero 26/05/2018 11,3 21,2 30,9 79 0 1.020
FR PIGLIO Civitella 26/05/2018 13,3 21 31,1 79 0,4 1.029
FR PONTECORVO Melfi di Sotto 26/05/2018 14 22,5 32,2 79 1,6 ----
FR S. ELIA FIUMERAPIDO Portella 26/05/2018 14,3 22,5 31,4 75 0 1.018
FR S. GIORGIO A LIRI Porto 26/05/2018 13,9 22,9 33,3 79 0 1.020
FR SGURGOLA Campo Lungo 26/05/2018 13,2 21,7 30,5 81 0,4 ----
FR VALLECORSA Serbatoio comunale 26/05/2018 15,7 20,6 28 82 17 1.020
LT APRILIA Le Ferriere 26/05/2018 15,7 22,4 28,7 76 0 1.017
LT CISTERNA B.go Carso 26/05/2018 14 21,2 27,3 85 0 ----
LT CISTERNA Doganella di Ninfa 26/05/2018 15,1 22,7 30,7 75 0 1.018
LT CORI Portone 26/05/2018 15,4 22,8 30 74 0 1.017
LT FONDI Capratica 26/05/2018 15 21,7 27,4 85 0,6 1.017
LT FORMIA Loc. Gianola 26/05/2018 14,8 22,2 28,5 80 0 ----
LT ITRI Valle Quercia 26/05/2018 17,1 22,7 29,2 74 0,2 1.017
LT MAENZA Casacotta 26/05/2018 15,7 22,6 30,1 77 0 1.022
LT MINTURNO Pulcherini 26/05/2018 17,1 23,3 29,3 79 0 1.017
LT PONTINIA Cotarda 26/05/2018 15,3 23 30,8 77 0 1.020
LT SABAUDIA Acquaviva 26/05/2018 14,8 20,8 25,7 87 0 1.018
LT SONNINO Frasso 26/05/2018 17,9 23,2 29,7 74 0 1.018
RI ACCUMOLI Terracino 26/05/2018 11,9 17,1 22,8 83 0,1 1.018
RI BORGOVELINO Ponte Basso 26/05/2018 13 21,2 30,3 74 0 1.022
RI CANTALUPO S. Francesco 26/05/2018 13,7 21,6 29,3 75 0 ----
RI CASTEL DI TORA Monte di Tora 26/05/2018 13,4 20,2 28,6 81 N.D. 1.021
RI CASTELNUOVO FARFA C. Spadone 26/05/2018 15,3 22,7 30,4 78 0 ----
RI CONFIGNI Portella 26/05/2018 15,8 21,8 28,1 80 0,2 1.017
RI FARA SABINA Canneto 26/05/2018 16,8 23,4 31,1 68 0 1.023
RI FARA SABINA Sant'Andrea 26/05/2018 15,8 22,6 29,9 72 0 ----
RI MONTELEONE S. Prato Camino 26/05/2018 14,4 21,4 29,6 77 0 1.023
RI MONTOPOLI IN SABINA Colle Arcone 26/05/2018 15,6 22,1 29 83 0 ----
RI MONTOPOLI IN SABINA Villa Caprola 26/05/2018 15,2 23,6 32 82 0 ----
RI POGGIO CATINO Pastine 26/05/2018 15,9 22 29,1 84 0 ----
RI POGGIO NATIVO Casali 26/05/2018 16,4 21,8 27,6 80 0 ----
RI RIETI Piana di Rieti 26/05/2018 12,6 20,9 28,3 70 0 1.019
RI SCANDRIGLIA Ponticelli 26/05/2018 15,2 21,7 27,9 82 0 ----
RM AGOSTA La Cisterna 26/05/2018 13,1 19,3 29,2 88 0 1.023
RM BRACCIANO Prato Pianciano 26/05/2018 14,7 22,3 30,9 71 0 1.020
RM CANALE MONTERANO Monte Virginio 26/05/2018 12,2 15 22,7 84 0,2 N.D.
RM CERVETERI Campo di Mare 26/05/2018 14,7 20,3 24,4 80 0 ----
RM CIVITELLA S.PAOLO Le Cese 26/05/2018 14,4 21,9 30,6 74 0 1.021
RM FIUMICINO Maccarese 26/05/2018 13,7 21,2 27,3 84 0,2 1.017
RM FIUMICINO Testa di Lepre 26/05/2018 15,4 22 28,8 78 0 ----
RM FORMELLO Perazzeta 26/05/2018 15,8 22,2 29,5 70 0 ----
RM FRASCATI Prata Porci 26/05/2018 14,3 22,3 30,2 74 0,2 1.017
RM GENAZZANO Coop. La Sonnina 26/05/2018 14,9 21 28,5 79 0,4 1.019
RM GROTTAFERRATA Valle Marciana 26/05/2018 16,1 22,2 29,1 72 0 1.017
RM LICENZA Colle Franco 26/05/2018 13,8 20,5 29,6 72 0,2 1.019
RM MARCELLINA V. Campetella 26/05/2018 15,4 22,3 29,3 78 0 ----
RM MARINO Gotto d'Oro 26/05/2018 15,2 22,7 29,1 78 0 1.017
RM MONTECOMPATRI Colle Mattia 26/05/2018 14,4 22,1 29,8 75 0 1.017
RM MONTECOMPATRI Pantano Borghese 26/05/2018 13,5 22 31,3 74 0,2 1.022
RM MONTELIBRETTI Bruciati 26/05/2018 14,4 22,4 30,8 78 0 ----
RM MONTEPORZIO Camaldoli 26/05/2018 15,1 20,3 26,3 77 0 1.019
RM MONTEROTONDO Grotta Marozza 26/05/2018 14,8 22,3 29,8 73 0 1.020
RM PALOMBARA Fonte Grande 26/05/2018 12,2 21 29,9 70 0 ----
RM ROMA Capocotta 26/05/2018 14,6 20,1 25,2 85 0 ----
RM ROMA Ponte di Nona 26/05/2018 15,6 22,9 29,8 80 0 1.017
RM ROMA Via Lanciani 38 26/05/2018 17,6 23,7 29,5 68 0 1.018
RM S. GREGORIO C. Faustiniano 26/05/2018 15,9 21,6 29,3 74 0 1.016
RM VELLETRI Cantina Sperimentale 26/05/2018 15,5 22,8 30,2 72 0 1.023
RM VELLETRI Prato Lungo 26/05/2018 18,1 23,8 29,6 70 0 ----
RM ZAGAROLO Santa Apollara 26/05/2018 17,1 22,5 29,3 74 0 ----
VT ACQUAPENDENTE Falconiera 26/05/2018 13,5 21 29,3 77 0 1.021
VT BAGNOREGIO Castell Cellesi 26/05/2018 15,2 21,1 27,9 63 0 ----
VT BASSANO R. Piano Mola 26/05/2018 15,7 21,4 29,4 77 0 1.022
VT BLERA Puntoni 26/05/2018 14,9 21,8 29 74 0 1.017
VT BOLSENA Capone 26/05/2018 15,4 22,6 31 75 0 1.022
VT BOLSENA Rentica 26/05/2018 14,7 21,5 28,7 76 0 ----
VT CANINO Diga Timone 26/05/2018 15 21,8 29,6 79 0 1.022
VT CANINO Pianacce 26/05/2018 14,3 21,6 27,9 79 0 1.018
VT CANINO San Valeriano 26/05/2018 17,9 23,4 31,6 84 0 ----
VT CELLENO Acquaforte 26/05/2018 14,1 21,2 29,2 79 0 ----
VT CORCHIANO Pantalone 26/05/2018 13,2 22,2 31,9 77 0 1.020
VT FARNESE Gressa 26/05/2018 14,4 20,9 27,4 70 0 ----
VT FARNESE Pian di Sala 26/05/2018 12,1 19,7 28,3 85 0 ----
VT GROTTE DI CASTRO Borghetto 26/05/2018 15,8 22,2 29,1 76 0 1.024
VT GROTTE DI CASTRO Purgatorio 26/05/2018 13,2 21,1 29 77 0,2 1.022
VT LATERA Centro Florovivaistico 26/05/2018 12,8 21,3 31,2 76 0 1.022
VT MONTALTO Le Murelle 26/05/2018 15,2 20,5 25,2 85 0 1.016
VT MONTALTO Pescia Romana 26/05/2018 12,9 20,1 26,6 85 0 1.017
VT MONTEFIASCONE Commenda 26/05/2018 16,1 22 29,6 74 0 ----
VT RONCIGLIONE Ponterotto 26/05/2018 13,6 21,8 29,7 73 0 ----
VT SORIANO CIMINO Pantane 26/05/2018 11,8 21,2 30,3 76 0 1.020
VT SORIANO CIMINO Poggio di Chia 26/05/2018 13,3 21,6 29,7 78 0 ----
VT TARQUINIA Portaccia 26/05/2018 14,8 21,2 25,8 80 0 ----
VT TUSCANIA Montebello 26/05/2018 16,1 21,4 27,5 72 0 ----
VT VETRALLA Marchionato 26/05/2018 15,1 21,6 28,6 82 0 ----
VT VITERBO Pisello 26/05/2018 15,8 21,6 28,7 76 0 ----
N.D. = Dati Non Disponibili
---- = Sensore non presente

Le misure esposte sono grezze, ovvero non sono state validate